createdAt,value
2024-03-02T00:02:00.591Z,99758.06
2024-03-02T00:05:03.897Z,99760.41
2024-03-02T00:08:08.968Z,99761.19
2024-03-02T00:11:15.305Z,99774.09
2024-03-02T00:14:18.165Z,99775.69
2024-03-02T00:17:27.138Z,99768.66
2024-03-02T00:20:30.272Z,99774.53
2024-03-02T00:23:36.301Z,99778.03
2024-03-02T00:26:39.042Z,99781.50
2024-03-02T00:29:43.920Z,99780.41
2024-03-02T00:32:46.560Z,99783.94
2024-03-02T00:35:50.471Z,99781.59
2024-03-02T00:38:55.324Z,99767.06
2024-03-02T00:41:58.233Z,99772.91
2024-03-02T00:45:00.815Z,99772.56
2024-03-02T00:48:05.969Z,99781.50
2024-03-02T00:51:09.377Z,99766.63
2024-03-02T00:54:12.439Z,99765.88
2024-03-02T00:57:16.318Z,99769.38
2024-03-02T01:00:19.552Z,99765.88
2024-03-02T01:03:22.356Z,99763.53
2024-03-02T01:06:25.548Z,99775.28
2024-03-02T01:09:28.162Z,99779.19
2024-03-02T01:12:31.057Z,99777.28
2024-03-02T01:15:34.847Z,99760.38
2024-03-02T01:18:38.002Z,99770.59
2024-03-02T01:21:40.736Z,99770.56
2024-03-02T01:24:43.806Z,99776.84
2024-03-02T01:27:50.239Z,99780.78
2024-03-02T01:30:53.595Z,99773.75
2024-03-02T01:33:56.407Z,99770.16
2024-03-02T01:36:59.361Z,99743.88
2024-03-02T01:40:02.286Z,99764.28
2024-03-02T01:43:06.164Z,99756.41
2024-03-02T01:46:08.850Z,99768.94
2024-03-02T01:49:11.747Z,99768.09
2024-03-02T01:52:14.317Z,99766.56
2024-03-02T01:55:17.260Z,99762.59
2024-03-02T01:58:20.092Z,99770.81
2024-03-02T02:01:22.890Z,99764.53
2024-03-02T02:04:29.036Z,99763.41
2024-03-02T02:07:32.441Z,99768.91
2024-03-02T02:10:35.331Z,99764.13
2024-03-02T02:13:38.138Z,99749.97
2024-03-02T02:16:41.036Z,99750.00
2024-03-02T02:19:44.052Z,99756.97
2024-03-02T02:23:04.276Z,99764.81
2024-03-02T02:26:06.877Z,99753.03
2024-03-02T02:29:09.791Z,99757.34
2024-03-02T02:32:12.540Z,99750.53
2024-03-02T02:35:15.517Z,99765.34
2024-03-02T02:38:18.307Z,99761.78
2024-03-02T02:41:21.159Z,99758.72
2024-03-02T02:44:23.825Z,99740.28
2024-03-02T02:47:27.487Z,99757.97
2024-03-02T02:50:30.246Z,99750.88
2024-03-02T02:53:33.155Z,99755.53
2024-03-02T02:56:36.190Z,99750.44
2024-03-02T02:59:39.052Z,99738.62
2024-03-02T03:02:43.228Z,99757.00
2024-03-02T03:05:46.156Z,99755.84
2024-03-02T03:08:48.813Z,99749.97
2024-03-02T03:11:51.688Z,99751.91
2024-03-02T03:14:54.341Z,99756.63
2024-03-02T03:17:57.305Z,99745.28
2024-03-02T03:20:59.984Z,99763.59
2024-03-02T03:24:02.920Z,99762.84
2024-03-02T03:27:05.799Z,99739.28
2024-03-02T03:30:08.939Z,99751.06
2024-03-02T03:33:11.662Z,99753.84
2024-03-02T03:36:14.585Z,99751.16
2024-03-02T03:39:17.298Z,99757.00
2024-03-02T03:42:20.265Z,99748.81
2024-03-02T03:45:22.885Z,99747.94
2024-03-02T03:48:31.740Z,99754.59
2024-03-02T03:51:35.095Z,99749.50
2024-03-02T03:54:39.634Z,99752.28
2024-03-02T03:57:42.334Z,99736.94
2024-03-02T04:00:45.256Z,99757.75
2024-03-02T04:03:48.429Z,99756.56
2024-03-02T04:06:51.105Z,99766.38
2024-03-02T04:09:54.077Z,99759.97
2024-03-02T04:12:56.787Z,99763.53
2024-03-02T04:15:59.685Z,99762.75
2024-03-02T04:19:02.356Z,99756.44
2024-03-02T04:22:12.488Z,99760.38
2024-03-02T04:25:21.260Z,99765.84
2024-03-02T04:28:24.238Z,99770.88
2024-03-02T04:31:26.875Z,99762.72
2024-03-02T04:34:29.940Z,99781.09
2024-03-02T04:37:35.671Z,99776.41
2024-03-02T04:40:38.550Z,99768.19
2024-03-02T04:43:41.570Z,99771.59
2024-03-02T04:46:44.510Z,99766.59
2024-03-02T04:49:47.448Z,99768.44
2024-03-02T04:52:50.398Z,99771.59
2024-03-02T04:56:29.079Z,99778.22
2024-03-02T04:59:32.143Z,99783.78
2024-03-02T05:02:34.710Z,99759.03
2024-03-02T05:05:38.377Z,99778.72
2024-03-02T05:08:41.042Z,99779.91
2024-03-02T05:11:43.912Z,99780.25
2024-03-02T05:14:47.365Z,99783.38
2024-03-02T05:17:50.490Z,99785.69
2024-03-02T05:20:53.086Z,99773.06
2024-03-02T05:23:55.998Z,99786.72
2024-03-02T05:26:58.620Z,99790.25
2024-03-02T05:30:02.078Z,99765.91
2024-03-02T05:33:05.248Z,99787.47
2024-03-02T05:36:08.451Z,99807.03
2024-03-02T05:39:11.582Z,99795.59
2024-03-02T05:42:15.501Z,99803.91
2024-03-02T05:45:18.299Z,99806.25
2024-03-02T05:48:21.298Z,99811.72
2024-03-02T05:51:23.946Z,99808.53
2024-03-02T05:54:26.804Z,99810.13
2024-03-02T05:57:50.615Z,99812.50
2024-03-02T06:00:55.780Z,99827.66
2024-03-02T06:04:00.114Z,99831.25
2024-03-02T06:07:02.817Z,99830.50
2024-03-02T06:10:10.944Z,99824.63
2024-03-02T06:13:15.280Z,99823.50
2024-03-02T06:16:18.385Z,99832.50
2024-03-02T06:19:21.601Z,99830.25
2024-03-02T06:22:26.192Z,99822.00
2024-03-02T06:25:29.300Z,99822.06
2024-03-02T06:28:32.154Z,99822.59
2024-03-02T06:31:34.808Z,99828.16
2024-03-02T06:34:37.812Z,99817.56
2024-03-02T06:37:42.928Z,99827.03
2024-03-02T06:40:45.875Z,99823.41
2024-03-02T06:43:48.541Z,99833.03
2024-03-02T06:46:51.379Z,99832.28
2024-03-02T06:49:54.969Z,99829.41
2024-03-02T06:52:58.429Z,99829.00
2024-03-02T06:56:01.001Z,99834.66
2024-03-02T06:59:03.970Z,99843.47
2024-03-02T07:02:06.782Z,99847.06
2024-03-02T07:05:09.886Z,99854.03
2024-03-02T07:08:12.652Z,99844.28
2024-03-02T07:11:15.754Z,99852.78
2024-03-02T07:14:18.623Z,99858.16
2024-03-02T07:17:21.551Z,99854.09
2024-03-02T07:20:24.222Z,99866.50
2024-03-02T07:23:28.441Z,99864.84
2024-03-02T07:29:38.419Z,99856.22
2024-03-02T07:32:42.700Z,99860.50
2024-03-02T07:35:45.624Z,99864.28
2024-03-02T07:38:51.403Z,99863.56
2024-03-02T07:41:54.597Z,99862.28
2024-03-02T07:44:57.216Z,99867.38
2024-03-02T07:48:00.451Z,99865.34
2024-03-02T07:51:03.782Z,99881.47
2024-03-02T07:54:06.892Z,99883.03
2024-03-02T07:57:09.799Z,99881.28
2024-03-02T08:00:13.018Z,99886.19
2024-03-02T08:03:16.287Z,99888.53
2024-03-02T08:06:19.031Z,99889.25
2024-03-02T08:09:21.993Z,99891.63
2024-03-02T08:12:24.879Z,99892.81
2024-03-02T08:15:27.913Z,99884.47
2024-03-02T08:18:30.573Z,99889.31
2024-03-02T08:21:36.336Z,99888.03
2024-03-02T08:24:39.211Z,99883.06
2024-03-02T08:27:42.173Z,99886.47
2024-03-02T08:30:44.919Z,99899.72
2024-03-02T08:33:48.054Z,99896.19
2024-03-02T08:36:50.866Z,99894.16
2024-03-02T08:39:53.936Z,99894.47
2024-03-02T08:42:56.607Z,99901.91
2024-03-02T08:45:59.649Z,99893.69
2024-03-02T08:49:02.444Z,99896.78
2024-03-02T08:52:05.904Z,99899.69
2024-03-02T08:55:08.981Z,99906.09
2024-03-02T08:58:12.066Z,99903.66
2024-03-02T09:01:14.901Z,99901.78
2024-03-02T09:04:18.060Z,99908.75
2024-03-02T09:07:20.705Z,99899.31
2024-03-02T09:10:26.299Z,99908.31
2024-03-02T09:13:30.656Z,99895.69
2024-03-02T09:16:33.706Z,99903.59
2024-03-02T09:19:41.122Z,99915.38
2024-03-02T09:22:43.976Z,99910.31
2024-03-02T09:25:46.700Z,99906.78
2024-03-02T09:28:49.568Z,99914.44
2024-03-02T09:31:52.146Z,99918.66
2024-03-02T09:34:57.032Z,99917.03
2024-03-02T09:37:59.765Z,99923.34
2024-03-02T09:41:03.201Z,99923.38
2024-03-02T09:44:07.262Z,99923.34
2024-03-02T09:47:10.179Z,99921.03
2024-03-02T09:50:12.808Z,99921.03
2024-03-02T09:53:16.633Z,99923.38
2024-03-02T09:56:21.812Z,99925.37
2024-03-02T09:59:24.706Z,99918.75
2024-03-02T10:02:27.355Z,99919.22
2024-03-02T10:05:30.334Z,99919.59
2024-03-02T10:08:49.710Z,99922.00
2024-03-02T10:11:52.593Z,99924.31
2024-03-02T10:15:05.902Z,99921.25
2024-03-02T10:18:13.376Z,99925.13
2024-03-02T10:21:16.386Z,99916.59
2024-03-02T10:24:20.704Z,99917.81
2024-03-02T10:27:28.815Z,99907.31
2024-03-02T10:30:31.843Z,99912.06
2024-03-02T10:33:34.489Z,99911.31
2024-03-02T10:36:41.464Z,99909.75
2024-03-02T10:39:44.335Z,99908.19
2024-03-02T10:42:48.205Z,99907.41
2024-03-02T10:45:52.049Z,99902.28
2024-03-02T10:48:55.037Z,99911.69
2024-03-02T10:51:58.859Z,99905.34
2024-03-02T10:55:01.953Z,99897.81
2024-03-02T10:58:08.433Z,99881.28
2024-03-02T11:01:13.812Z,99898.41
2024-03-02T11:04:20.139Z,99889.72
2024-03-02T11:07:24.595Z,99874.34
2024-03-02T11:10:31.309Z,99893.59
2024-03-02T11:13:37.603Z,99898.25
2024-03-02T11:16:42.720Z,99895.66
2024-03-02T11:19:46.657Z,99898.31
2024-03-02T11:22:49.326Z,99892.22
2024-03-02T11:25:52.250Z,99896.50
2024-03-02T11:28:55.077Z,99895.78
2024-03-02T11:32:04.158Z,99896.50
2024-03-02T11:35:08.482Z,99888.28
2024-03-02T11:38:12.153Z,99893.50
2024-03-02T11:41:15.727Z,99888.31
2024-03-02T11:44:19.104Z,99899.31
2024-03-02T11:47:21.885Z,99898.53
2024-03-02T11:50:50.148Z,99889.72
2024-03-02T11:53:55.646Z,99893.09
2024-03-02T11:57:01.090Z,99886.00
2024-03-02T12:00:04.854Z,99895.03
2024-03-02T12:03:09.360Z,99891.94
2024-03-02T12:06:14.276Z,99899.81
2024-03-02T12:09:16.955Z,99890.44
2024-03-02T12:12:23.702Z,99891.16
2024-03-02T12:15:31.979Z,99895.94
2024-03-02T12:18:35.063Z,99893.94
2024-03-02T12:21:38.521Z,99898.62
2024-03-02T12:24:42.570Z,99903.69
2024-03-02T12:27:46.728Z,99903.97
2024-03-02T12:30:50.279Z,99895.34
2024-03-02T12:33:53.212Z,99892.09
2024-03-02T12:36:56.271Z,99888.84
2024-03-02T12:39:59.017Z,99888.47
2024-03-02T12:43:02.317Z,99891.38
2024-03-02T12:46:05.354Z,99892.88
2024-03-02T12:49:13.447Z,99890.84
2024-03-02T12:52:16.170Z,99887.37
2024-03-02T12:55:20.074Z,99894.69
2024-03-02T12:58:23.893Z,99890.06
2024-03-02T13:01:27.262Z,99896.63
2024-03-02T13:04:30.531Z,99890.78
2024-03-02T13:07:34.860Z,99891.41
2024-03-02T13:10:38.988Z,99896.16
2024-03-02T13:13:42.010Z,99896.09
2024-03-02T13:16:47.924Z,99900.81
2024-03-02T13:19:58.987Z,99896.91
2024-03-02T13:23:02.593Z,99896.47
2024-03-02T13:26:05.801Z,99890.84
2024-03-02T13:29:09.244Z,99888.13
2024-03-02T13:32:12.184Z,99871.84
2024-03-02T13:35:14.794Z,99884.19
2024-03-02T13:38:19.272Z,99878.81
2024-03-02T13:41:22.354Z,99893.34
2024-03-02T13:44:26.057Z,99885.50
2024-03-02T13:47:28.754Z,99884.56
2024-03-02T13:50:32.047Z,99893.09
2024-03-02T13:53:35.921Z,99895.47
2024-03-02T13:56:40.270Z,99887.69
2024-03-02T13:59:44.338Z,99889.81
2024-03-02T14:02:48.086Z,99893.38
2024-03-02T14:05:51.397Z,99892.94
2024-03-02T14:08:54.876Z,99892.56
2024-03-02T14:11:58.268Z,99893.53
2024-03-02T14:15:03.484Z,99894.19
2024-03-02T14:18:07.279Z,99893.84
2024-03-02T14:21:09.951Z,99885.22
2024-03-02T14:24:12.779Z,99893.09
2024-03-02T14:27:25.271Z,99888.34
2024-03-02T14:30:35.802Z,99897.06
2024-03-02T14:33:38.544Z,99893.97
2024-03-02T14:36:44.719Z,99886.59
2024-03-02T14:39:47.409Z,99891.28
2024-03-02T14:42:50.383Z,99876.75
2024-03-02T14:45:53.028Z,99887.75
2024-03-02T14:48:56.083Z,99884.25
2024-03-02T14:51:58.775Z,99885.78
2024-03-02T14:55:02.095Z,99883.50
2024-03-02T14:58:05.034Z,99882.72
2024-03-02T15:01:08.491Z,99887.50
2024-03-02T15:04:11.246Z,99877.34
2024-03-02T15:07:14.279Z,99883.94
2024-03-02T15:10:17.198Z,99895.41
2024-03-02T15:13:20.405Z,99888.75
2024-03-02T15:16:23.081Z,99886.81
2024-03-02T15:19:26.076Z,99886.41
2024-03-02T15:22:28.630Z,99890.69
2024-03-02T15:25:31.572Z,99886.06
2024-03-02T15:28:34.332Z,99892.81
2024-03-02T15:31:37.322Z,99895.22
2024-03-02T15:34:40.189Z,99881.44
2024-03-02T15:37:43.145Z,99890.44
2024-03-02T15:40:45.946Z,99891.22
2024-03-02T15:43:49.961Z,99880.66
2024-03-02T15:46:52.815Z,99881.06
2024-03-02T15:49:55.874Z,99883.47
2024-03-02T15:53:03.647Z,99879.94
2024-03-02T15:56:09.509Z,99887.84
2024-03-02T15:59:12.749Z,99888.28
2024-03-02T16:02:15.666Z,99893.03
2024-03-02T16:05:19.619Z,99900.97
2024-03-02T16:08:22.369Z,99897.84
2024-03-02T16:11:25.332Z,99901.03
2024-03-02T16:14:27.988Z,99904.97
2024-03-02T16:17:30.943Z,99911.28
2024-03-02T16:20:33.871Z,99914.41
2024-03-02T16:23:36.857Z,99912.88
2024-03-02T16:26:40.033Z,99907.78
2024-03-02T16:29:42.938Z,99908.97
2024-03-02T16:32:45.553Z,99910.94
2024-03-02T16:35:49.839Z,99907.41
2024-03-02T16:38:52.532Z,99914.84
2024-03-02T16:41:55.492Z,99919.94
2024-03-02T16:44:58.333Z,99913.25
2024-03-02T16:48:01.770Z,99922.97
2024-03-02T16:51:05.253Z,99917.37
2024-03-02T16:54:08.916Z,99918.13
2024-03-02T16:57:12.557Z,99922.78
2024-03-02T17:00:16.006Z,99920.31
2024-03-02T17:03:19.339Z,99930.47
2024-03-02T17:06:22.148Z,99930.38
2024-03-02T17:09:24.809Z,99935.34
2024-03-02T17:12:27.854Z,99930.16
2024-03-02T17:15:30.573Z,99939.09
2024-03-02T17:18:33.806Z,99935.13
2024-03-02T17:21:36.465Z,99941.34
2024-03-02T17:24:39.404Z,99943.28
2024-03-02T17:27:42.059Z,99950.31
2024-03-02T17:30:45.498Z,99942.81
2024-03-02T17:33:48.569Z,99952.59
2024-03-02T17:36:51.680Z,99945.84
2024-03-02T17:39:55.893Z,99948.41
2024-03-02T17:42:58.923Z,99947.56
2024-03-02T17:46:01.777Z,99958.47
2024-03-02T17:49:05.704Z,99957.16
2024-03-02T17:52:08.685Z,99959.81
2024-03-02T17:55:11.951Z,99963.16
2024-03-02T17:58:14.730Z,99962.56
2024-03-02T18:01:18.270Z,99959.94
2024-03-02T18:04:23.442Z,99968.81
2024-03-02T18:07:26.499Z,99968.47
2024-03-02T18:10:30.231Z,99970.81
2024-03-02T18:13:35.148Z,99975.94
2024-03-02T18:16:38.463Z,99970.59
2024-03-02T18:19:41.130Z,99972.53
2024-03-02T18:22:44.303Z,99972.06
2024-03-02T18:25:49.750Z,99971.97
2024-03-02T18:28:52.680Z,99967.09
2024-03-02T18:31:55.409Z,99974.88
2024-03-02T18:34:58.278Z,99973.34
2024-03-02T18:38:00.912Z,99977.22
2024-03-02T18:41:03.975Z,99978.81
2024-03-02T18:44:06.941Z,99981.81
2024-03-02T18:47:12.243Z,99983.16
2024-03-02T18:50:15.368Z,99982.03
2024-03-02T18:53:18.274Z,99990.22
2024-03-02T18:56:21.065Z,99993.78
2024-03-02T18:59:25.280Z,99988.63
2024-03-02T19:02:29.541Z,99979.03
2024-03-02T19:05:33.391Z,99990.88
2024-03-02T19:08:36.398Z,99994.31
2024-03-02T19:11:39.946Z,99989.66
2024-03-02T19:14:43.064Z,99991.25
2024-03-02T19:17:46.104Z,99993.84
2024-03-02T19:20:49.110Z,99995.13
2024-03-02T19:23:52.064Z,99998.78
2024-03-02T19:26:54.661Z,99998.94
2024-03-02T19:29:57.577Z,100008.25
2024-03-02T19:33:00.319Z,100001.34
2024-03-02T19:36:04.633Z,100005.09
2024-03-02T19:39:07.490Z,100009.34
2024-03-02T19:42:10.749Z,100011.69
2024-03-02T19:45:13.798Z,100013.94
2024-03-02T19:48:18.450Z,100012.88
2024-03-02T19:51:21.417Z,100016.00
2024-03-02T19:54:24.346Z,100014.44
2024-03-02T19:57:28.350Z,100016.03
2024-03-02T20:00:31.610Z,100016.53
2024-03-02T20:03:34.517Z,100019.75
2024-03-02T20:06:39.519Z,100023.69
2024-03-02T20:09:42.826Z,100017.75
2024-03-02T20:12:45.488Z,100016.16
2024-03-02T20:15:48.631Z,100015.50
2024-03-02T20:18:51.416Z,100022.31
2024-03-02T20:21:54.381Z,100007.59
2024-03-02T20:24:56.984Z,100016.63
2024-03-02T20:28:00.575Z,100024.41
2024-03-02T20:31:03.390Z,100019.66
2024-03-02T20:34:06.328Z,100015.06
2024-03-02T20:37:09.212Z,100030.34
2024-03-02T20:40:14.453Z,100027.72
2024-03-02T20:43:17.106Z,100035.38
2024-03-02T20:46:20.314Z,100035.81
2024-03-02T20:49:24.848Z,100039.34
2024-03-02T20:52:27.853Z,100042.16
2024-03-02T20:55:31.190Z,100039.12
2024-03-02T20:58:34.450Z,100037.97
2024-03-02T21:01:38.291Z,100028.56
2024-03-02T21:04:43.265Z,100026.72
2024-03-02T21:07:45.962Z,100023.69
2024-03-02T21:10:50.059Z,100027.34
2024-03-02T21:13:53.155Z,100036.25
2024-03-02T21:16:56.247Z,100031.16
2024-03-02T21:19:58.963Z,100031.94
2024-03-02T21:23:02.152Z,100024.53
2024-03-02T21:26:05.031Z,100020.53
2024-03-02T21:29:09.121Z,100025.31
2024-03-02T21:32:11.718Z,100019.72
2024-03-02T21:35:16.102Z,100023.25
2024-03-02T21:38:18.759Z,100013.78
2024-03-02T21:41:21.854Z,100015.09
2024-03-02T21:44:24.790Z,100018.09
2024-03-02T21:47:27.831Z,100010.19
2024-03-02T21:50:31.750Z,100009.53
2024-03-02T21:53:34.703Z,100010.00
2024-03-02T21:56:37.829Z,100017.31
2024-03-02T21:59:40.671Z,100013.78
2024-03-02T22:02:43.285Z,100016.06
2024-03-02T22:05:46.216Z,100016.78
2024-03-02T22:08:48.861Z,100016.34
2024-03-02T22:11:51.758Z,100019.31
2024-03-02T22:14:54.661Z,100021.28
2024-03-02T22:17:58.239Z,100014.31
2024-03-02T22:21:00.905Z,100015.22
2024-03-02T22:24:03.986Z,100015.75
2024-03-02T22:27:06.620Z,100002.06
2024-03-02T22:30:09.888Z,100023.09
2024-03-02T22:33:12.961Z,100022.12
2024-03-02T22:36:15.893Z,100024.88
2024-03-02T22:39:18.546Z,100022.44
2024-03-02T22:42:21.405Z,100025.75
2024-03-02T22:45:23.976Z,100012.59
2024-03-02T22:48:26.904Z,100026.56
2024-03-02T22:51:29.447Z,100025.59
2024-03-02T22:54:32.313Z,100028.28
2024-03-02T22:57:36.472Z,100030.84
2024-03-02T23:00:49.242Z,100023.13
2024-03-02T23:03:52.357Z,100021.03
2024-03-02T23:06:55.290Z,100020.34
2024-03-02T23:09:57.966Z,100015.50
2024-03-02T23:13:00.907Z,100024.19
2024-03-02T23:16:04.272Z,100023.13
2024-03-02T23:19:07.368Z,100033.53
2024-03-02T23:22:11.490Z,100017.31
2024-03-02T23:25:15.697Z,100018.72
2024-03-02T23:28:18.370Z,100017.59
2024-03-02T23:31:21.377Z,100015.03
2024-03-02T23:34:23.988Z,100014.94
2024-03-02T23:37:28.992Z,100018.12
2024-03-02T23:40:51.563Z,100016.63
2024-03-02T23:43:58.676Z,100014.75
2024-03-02T23:47:01.569Z,100014.38
2024-03-02T23:50:04.819Z,100017.91
2024-03-02T23:53:07.402Z,100021.13
2024-03-02T23:56:12.899Z,100017.06
2024-03-02T23:59:15.432Z,100026.44
